createdAt,value
2023-05-08T00:00:11.645Z,8.15
2023-05-08T00:01:33.186Z,8.93
2023-05-08T00:03:01.647Z,8.07
2023-05-08T00:04:27.430Z,8.60
2023-05-08T00:05:58.714Z,8.60
2023-05-08T00:07:21.115Z,8.55
2023-05-08T00:09:23.124Z,8.00
2023-05-08T00:10:49.729Z,7.88
2023-05-08T00:12:11.358Z,9.07
2023-05-08T00:13:33.671Z,8.13
2023-05-08T00:14:58.802Z,8.27
2023-05-08T00:16:22.345Z,8.77
2023-05-08T00:17:43.848Z,8.27
2023-05-08T00:19:08.925Z,8.15
2023-05-08T00:20:31.314Z,8.52
2023-05-08T00:21:57.602Z,8.85
2023-05-08T00:23:18.890Z,8.77
2023-05-08T00:24:42.145Z,8.43
2023-05-08T00:26:03.650Z,9.30
2023-05-08T00:27:25.478Z,9.23
2023-05-08T00:28:48.731Z,8.95
2023-05-08T00:30:13.406Z,8.88
2023-05-08T00:31:36.116Z,9.27
2023-05-08T00:32:57.813Z,9.27
2023-05-08T00:34:20.449Z,9.75
2023-05-08T00:35:43.123Z,8.82
2023-05-08T00:37:09.693Z,9.88
2023-05-08T00:38:31.777Z,9.48
2023-05-08T00:39:54.131Z,10.20
2023-05-08T00:41:16.870Z,9.32
2023-05-08T00:43:06.561Z,9.18
2023-05-08T00:44:54.810Z,10.50
2023-05-08T00:46:51.747Z,9.60
2023-05-08T00:48:14.442Z,10.50
2023-05-08T00:49:39.705Z,10.05
2023-05-08T00:51:03.639Z,10.35
2023-05-08T00:52:30.582Z,10.25
2023-05-08T00:55:35.914Z,11.07
2023-05-08T00:56:58.341Z,9.60
2023-05-08T00:58:28.673Z,10.07
2023-05-08T00:59:52.195Z,10.82
2023-05-08T01:01:13.684Z,10.85
2023-05-08T01:02:37.336Z,11.27
2023-05-08T01:04:01.845Z,11.52
2023-05-08T01:05:28.489Z,11.35
2023-05-08T01:06:51.193Z,10.80
2023-05-08T01:08:14.954Z,11.25
2023-05-08T01:09:39.907Z,10.77
2023-05-08T01:11:10.600Z,10.88
2023-05-08T01:12:45.459Z,11.70
2023-05-08T01:14:20.473Z,11.18
2023-05-08T01:15:58.072Z,11.23
2023-05-08T01:17:36.580Z,11.45
2023-05-08T01:19:06.507Z,11.95
2023-05-08T01:20:37.281Z,10.25
2023-05-08T01:22:11.369Z,10.82
2023-05-08T01:24:11.553Z,10.82
2023-05-08T01:26:08.123Z,11.35
2023-05-08T01:28:05.843Z,10.18
2023-05-08T01:29:53.742Z,11.63
2023-05-08T01:31:28.914Z,11.30
2023-05-08T01:33:00.231Z,10.43
2023-05-08T01:34:27.059Z,10.63
2023-05-08T01:37:31.156Z,10.57
2023-05-08T01:39:09.558Z,10.40
2023-05-08T01:40:37.983Z,10.65
2023-05-08T01:42:06.252Z,10.55
2023-05-08T01:43:48.612Z,10.45
2023-05-08T01:45:17.452Z,11.38
2023-05-08T01:46:40.477Z,11.63
2023-05-08T01:48:06.676Z,11.60
2023-05-08T01:49:35.562Z,11.30
2023-05-08T01:51:02.620Z,11.68
2023-05-08T01:52:35.708Z,10.57
2023-05-08T01:54:10.140Z,10.60
2023-05-08T01:55:39.741Z,11.43
2023-05-08T01:57:05.200Z,11.30
2023-05-08T01:58:32.193Z,11.30
2023-05-08T01:59:56.432Z,10.65
2023-05-08T02:01:25.889Z,10.23
2023-05-08T02:02:51.871Z,10.70
2023-05-08T02:04:16.671Z,10.85
2023-05-08T02:05:41.330Z,11.07
2023-05-08T02:07:20.926Z,11.10
2023-05-08T02:08:43.908Z,10.93
2023-05-08T02:10:10.129Z,11.48
2023-05-08T02:11:37.794Z,11.45
2023-05-08T02:13:04.452Z,9.68
2023-05-08T02:14:29.509Z,11.93
2023-05-08T02:15:55.384Z,11.20
2023-05-08T02:17:19.616Z,10.95
2023-05-08T02:18:47.672Z,10.70
2023-05-08T02:20:15.391Z,10.20
2023-05-08T02:21:40.013Z,10.40
2023-05-08T02:23:04.730Z,10.60
2023-05-08T02:24:27.948Z,11.27
2023-05-08T02:25:53.817Z,11.27
2023-05-08T02:27:17.577Z,9.90
2023-05-08T02:28:40.385Z,10.93
2023-05-08T02:30:03.290Z,10.80
2023-05-08T02:31:25.849Z,11.05
2023-05-08T02:32:50.717Z,10.25
2023-05-08T02:34:14.088Z,10.55
2023-05-08T02:35:41.661Z,10.65
2023-05-08T02:37:05.057Z,10.30
2023-05-08T02:38:29.008Z,10.65
2023-05-08T02:39:54.332Z,11.13
2023-05-08T02:41:19.432Z,10.75
2023-05-08T02:42:41.549Z,10.25
2023-05-08T02:44:07.468Z,10.57
2023-05-08T02:45:36.597Z,10.77
2023-05-08T02:47:09.531Z,10.65
2023-05-08T02:48:36.209Z,10.68
2023-05-08T02:50:05.171Z,10.55
2023-05-08T02:51:41.052Z,10.30
2023-05-08T02:53:06.750Z,9.45
2023-05-08T02:54:39.718Z,11.55
2023-05-08T02:56:06.631Z,10.52
2023-05-08T02:58:16.072Z,10.32
2023-05-08T02:59:48.754Z,11.05
2023-05-08T03:01:22.432Z,11.00
2023-05-08T03:02:48.822Z,10.60
2023-05-08T03:04:44.411Z,10.55
2023-05-08T03:06:23.992Z,10.17
2023-05-08T03:10:10.531Z,10.20
2023-05-08T03:11:43.750Z,11.25
2023-05-08T03:13:12.166Z,10.65
2023-05-08T03:14:43.481Z,10.50
2023-05-08T03:16:37.155Z,11.50
2023-05-08T03:18:08.375Z,9.63
2023-05-08T03:19:52.315Z,11.57
2023-05-08T03:21:30.585Z,10.52
2023-05-08T03:23:37.028Z,10.80
2023-05-08T03:25:01.788Z,10.27
2023-05-08T03:26:50.723Z,10.65
2023-05-08T03:28:48.709Z,11.68
2023-05-08T03:31:11.110Z,11.10
2023-05-08T03:32:51.804Z,9.82
2023-05-08T03:34:25.767Z,9.90
2023-05-08T03:35:49.955Z,11.75
2023-05-08T03:37:13.071Z,11.52
2023-05-08T03:38:36.917Z,11.00
2023-05-08T03:39:59.859Z,10.80
2023-05-08T03:41:41.974Z,12.23
2023-05-08T03:43:27.692Z,11.52
2023-05-08T03:45:03.630Z,11.05
2023-05-08T03:46:55.529Z,10.75
2023-05-08T03:48:36.546Z,10.70
2023-05-08T03:49:58.947Z,10.77
2023-05-08T03:51:29.533Z,10.65
2023-05-08T03:52:53.046Z,11.18
2023-05-08T03:54:19.972Z,10.40
2023-05-08T03:55:44.601Z,10.30
2023-05-08T03:57:53.856Z,9.98
2023-05-08T03:59:31.889Z,9.75
2023-05-08T04:01:03.204Z,9.65
2023-05-08T04:05:43.138Z,10.02
2023-05-08T04:07:10.089Z,9.43
2023-05-08T04:11:04.132Z,9.88
2023-05-08T04:12:36.882Z,11.30
2023-05-08T04:14:03.994Z,11.13
2023-05-08T04:15:47.726Z,10.43
2023-05-08T04:18:13.341Z,10.88
2023-05-08T04:19:53.590Z,9.88
2023-05-08T04:23:27.491Z,10.27
2023-05-08T04:24:57.400Z,10.13
2023-05-08T04:26:20.886Z,8.95
2023-05-08T04:27:57.889Z,9.90
2023-05-08T04:31:24.037Z,9.93
2023-05-08T04:34:43.572Z,9.43
2023-05-08T04:38:51.432Z,11.07
2023-05-08T04:40:31.403Z,10.00
2023-05-08T04:41:58.880Z,9.27
2023-05-08T04:43:27.501Z,9.15
2023-05-08T04:44:52.698Z,9.32
2023-05-08T04:46:17.712Z,9.57
2023-05-08T04:47:54.153Z,9.98
2023-05-08T04:49:23.714Z,9.38
2023-05-08T04:52:16.383Z,9.00
2023-05-08T04:53:38.740Z,8.75
2023-05-08T04:55:00.415Z,9.95
2023-05-08T04:56:29.512Z,9.93
2023-05-08T04:57:50.591Z,9.30
2023-05-08T04:59:17.532Z,9.75
2023-05-08T05:00:42.686Z,9.80
2023-05-08T05:02:08.116Z,9.40
2023-05-08T05:03:43.351Z,10.13
2023-05-08T05:05:06.007Z,9.43
2023-05-08T05:06:29.351Z,9.48
2023-05-08T05:07:54.779Z,9.60
2023-05-08T05:09:21.272Z,10.18
2023-05-08T05:15:31.060Z,8.73
2023-05-08T05:16:55.030Z,9.68
2023-05-08T05:19:26.675Z,9.50
2023-05-08T05:20:48.553Z,8.57
2023-05-08T05:22:39.036Z,9.52
2023-05-08T05:24:10.861Z,8.52
2023-05-08T05:25:32.641Z,9.70
2023-05-08T05:27:00.164Z,8.50
2023-05-08T05:28:33.975Z,8.88
2023-05-08T05:30:49.131Z,9.40
2023-05-08T05:43:14.782Z,8.68
2023-05-08T05:44:38.202Z,8.38
2023-05-08T05:46:17.345Z,8.48
2023-05-08T05:47:47.197Z,9.48
2023-05-08T05:49:10.076Z,8.27
2023-05-08T05:50:59.237Z,7.60
2023-05-08T06:02:18.914Z,8.10
2023-05-08T06:03:45.521Z,8.05
2023-05-08T06:21:01.485Z,7.10
2023-05-08T06:46:41.263Z,5.93
2023-05-08T06:48:33.239Z,6.95
2023-05-08T06:50:01.923Z,6.50
2023-05-08T06:52:05.788Z,6.88
2023-05-08T06:55:29.323Z,6.05
2023-05-08T06:56:55.003Z,6.60
2023-05-08T07:00:33.178Z,6.93
2023-05-08T10:39:37.059Z,3.72
2023-05-08T10:50:28.015Z,4.32
2023-05-08T13:07:18.176Z,4.88
2023-05-08T13:27:06.634Z,4.70
2023-05-08T13:28:29.633Z,4.47
2023-05-08T13:49:33.999Z,4.07
2023-05-08T19:12:29.623Z,4.70
